MDT,Max TemperatureF,Mean TemperatureF,Min TemperatureF,Max Dew PointF,MeanDew PointF,Min DewpointF,Max Humidity, Mean Humidity, Min Humidity, Max Sea Level PressureIn, Mean Sea Level PressureIn, Min Sea Level PressureIn, Max VisibilityMiles, Mean VisibilityMiles, Min VisibilityMiles, Max Wind SpeedMPH, Mean Wind SpeedMPH, Max Gust SpeedMPH,PrecipitationIn, CloudCover, Events, WindDirDegrees
2012-4-1,60,48,37,32,28,18,75,48,31,30.00,29.77,29.63,15,11,10,30,11,41,0.00,3,,284
2012-4-2,50,42,33,30,19,12,70,44,36,30.11,30.05,30.00,15,11,10,25,18,38,0.00,1,,322
2012-4-3,57,44,30,36,29,23,81,63,33,30.16,30.07,29.98,15,12,10,10,4,,0.00,0,,145
2012-4-4,69,55,41,36,30,25,76,45,21,29.98,29.85,29.69,15,12,10,18,8,20,0.00,1,,164
2012-4-5,57,48,39,36,31,27,71,56,36,29.85,29.74,29.62,15,12,10,17,10,23,0.00,2,,320
2012-4-6,48,38,28,30,27,18,100,68,42,30.29,29.97,29.68,15,9,0,20,10,26,0.00,3,Snow,307
2012-4-7,60,42,24,34,24,18,86,62,25,30.41,30.30,30.21,15,12,10,15,4,,0.00,0,,160
2012-4-8,71,50,30,34,26,12,75,50,12,30.29,30.22,30.11,15,12,10,12,3,,0.00,0,,288
2012-4-9,75,56,37,41,30,19,66,48,13,30.16,30.09,29.98,15,12,10,8,3,,0.00,0,,178
2012-4-10,77,60,42,43,32,21,70,47,13,30.05,29.97,29.83,15,12,10,13,4,,0.00,2,,147
2012-4-11,69,56,44,43,29,19,82,42,20,29.86,29.80,29.67,15,11,8,23,13,37,0.02,3,Rain,155
2012-4-12,48,42,37,46,34,30,100,67,50,29.94,29.89,29.85,15,11,10,18,9,28,0.00,4,,184
2012-4-13,53,44,35,37,34,28,100,75,38,29.95,29.85,29.69,15,11,10,12,4,18,0.00,4,,166
2012-4-14,53,45,37,39,35,30,93,76,47,29.82,29.67,29.61,15,12,5,16,9,21,0.03,4,Rain,337
2012-4-15,53,43,33,37,33,19,100,73,28,30.11,29.98,29.82,15,11,9,13,6,,0.00,3,,59
2012-4-16,62,50,39,36,28,21,65,48,27,30.27,30.18,30.12,15,12,10,16,7,21,0.00,2,,83
2012-4-17,53,48,42,43,36,30,87,66,50,30.28,30.17,30.12,15,11,8,14,6,,0.00,3,Rain,136
2012-4-18,55,48,42,46,41,37,100,77,58,30.11,30.06,30.02,15,11,10,18,5,25,0.00,3,,107
2012-4-19,57,49,41,45,41,37,100,86,59,30.20,30.11,30.05,15,12,8,9,2,,0.00,3,Rain,150
2012-4-20,66,55,44,45,42,37,81,55,42,30.32,30.26,30.20,15,15,15,9,4,,0.00,4,,213
2012-4-21,75,60,44,46,40,34,76,49,22,30.26,30.20,30.12,15,15,15,6,3,,0.00,0,,179
2012-4-22,82,64,46,43,37,30,66,35,15,30.21,30.15,30.07,15,15,15,6,3,,0.00,3,,232
2012-4-23,82,70,57,45,40,34,59,37,17,30.13,30.03,29.95,15,13,10,14,4,,0.00,2,,168
2012-4-24,82,66,51,45,38,28,67,42,15,30.03,29.96,29.89,15,12,10,12,4,,0.00,1,,150
2012-4-25,75,65,55,46,40,28,55,42,24,30.07,30.00,29.95,15,12,10,21,7,26,0.00,3,,187
2012-4-26,71,58,44,46,41,36,81,53,27,29.95,29.84,29.68,15,12,7,41,9,55,0.08,4,Rain,136
2012-4-27,51,45,39,37,31,21,87,61,35,30.18,30.10,30.00,15,12,10,25,14,30,0.00,4,,325
2012-4-28,55,44,33,27,22,16,60,43,21,30.19,30.14,30.06,15,12,10,16,8,21,0.00,1,,345
2012-4-29,62,52,41,39,30,23,71,50,26,30.12,30.08,30.05,15,12,10,16,4,,0.00,3,,157
2012-4-30,73,56,39,45,34,28,81,50,20,30.07,29.96,29.76,15,12,10,17,5,26,0.00,3,,152